createdAt,value
2022-09-06T00:01:15.275Z,11.63
2022-09-06T00:03:43.055Z,11.62
2022-09-06T00:06:13.894Z,11.59
2022-09-06T00:08:42.777Z,11.56
2022-09-06T00:11:13.650Z,11.53
2022-09-06T00:13:41.242Z,11.50
2022-09-06T00:16:17.617Z,11.49
2022-09-06T00:18:45.397Z,11.48
2022-09-06T00:21:16.119Z,11.47
2022-09-06T00:23:43.844Z,11.46
2022-09-06T00:26:11.152Z,11.46
2022-09-06T00:28:39.263Z,11.52
2022-09-06T00:31:11.926Z,11.56
2022-09-06T00:33:39.862Z,11.63
2022-09-06T00:36:07.733Z,11.74
2022-09-06T00:38:36.460Z,11.84
2022-09-06T00:41:04.707Z,11.91
2022-09-06T00:43:33.046Z,11.97
2022-09-06T00:46:01.357Z,11.97
2022-09-06T00:48:29.909Z,12.02
2022-09-06T00:50:59.941Z,12.05
2022-09-06T00:53:27.703Z,12.05
2022-09-06T00:55:56.994Z,12.03
2022-09-06T00:58:25.380Z,12.02
2022-09-06T01:00:53.393Z,12.02
2022-09-06T01:03:22.444Z,12.05
2022-09-06T01:05:52.736Z,12.07
2022-09-06T01:08:58.754Z,12.10
2022-09-06T01:11:41.081Z,12.12
2022-09-06T01:14:24.731Z,12.15
2022-09-06T01:17:00.230Z,12.17
2022-09-06T01:19:33.248Z,12.22
2022-09-06T01:22:49.257Z,12.24
2022-09-06T01:25:26.704Z,12.19
2022-09-06T01:28:03.264Z,12.19
2022-09-06T01:30:34.079Z,12.15
2022-09-06T01:33:17.343Z,12.13
2022-09-06T01:35:48.785Z,12.14
2022-09-06T01:38:16.394Z,12.17
2022-09-06T01:40:46.072Z,12.18
2022-09-06T01:43:25.754Z,12.21
2022-09-06T01:46:05.595Z,12.27
2022-09-06T01:48:38.844Z,12.29
2022-09-06T01:51:22.226Z,12.31
2022-09-06T01:54:17.472Z,12.43
2022-09-06T01:57:26.657Z,12.36
2022-09-06T01:59:53.976Z,12.42
2022-09-06T02:02:45.691Z,12.46
2022-09-06T02:05:27.582Z,12.51
2022-09-06T02:07:59.090Z,12.51
2022-09-06T02:10:32.245Z,12.51
2022-09-06T02:13:01.147Z,12.54
2022-09-06T02:15:34.755Z,12.53
2022-09-06T02:18:10.410Z,12.52
2022-09-06T02:20:42.271Z,12.48
2022-09-06T02:23:12.265Z,12.47
2022-09-06T02:25:42.904Z,12.47
2022-09-06T02:28:10.895Z,12.48
2022-09-06T02:30:44.091Z,12.47
2022-09-06T02:33:16.708Z,12.46
2022-09-06T02:35:46.883Z,12.48
2022-09-06T02:38:14.738Z,12.46
2022-09-06T02:40:43.334Z,12.45
2022-09-06T02:43:10.734Z,12.44
2022-09-06T02:45:38.095Z,12.43
2022-09-06T02:48:05.545Z,12.41
2022-09-06T02:50:32.964Z,12.43
2022-09-06T02:53:12.096Z,12.42
2022-09-06T02:55:39.864Z,12.41
2022-09-06T02:58:10.722Z,12.43
2022-09-06T03:00:38.170Z,12.41
2022-09-06T03:03:05.850Z,12.41
2022-09-06T03:05:33.494Z,12.43
2022-09-06T03:08:00.877Z,12.43
2022-09-06T03:10:28.227Z,12.39
2022-09-06T03:12:55.731Z,12.38
2022-09-06T03:15:23.042Z,12.45
2022-09-06T03:17:50.396Z,12.49
2022-09-06T03:20:17.943Z,12.48
2022-09-06T03:22:45.171Z,12.52
2022-09-06T03:25:12.514Z,12.53
2022-09-06T03:27:41.449Z,12.58
2022-09-06T03:30:09.253Z,12.61
2022-09-06T03:32:36.718Z,12.62
2022-09-06T03:35:04.380Z,12.66
2022-09-06T03:37:31.743Z,12.65
2022-09-06T03:40:00.051Z,12.65
2022-09-06T03:42:28.194Z,12.56
2022-09-06T03:44:55.952Z,12.52
2022-09-06T03:47:23.776Z,12.49
2022-09-06T03:49:51.635Z,12.53
2022-09-06T03:52:19.212Z,12.54
2022-09-06T03:55:03.246Z,12.56
2022-09-06T03:57:30.719Z,12.53
2022-09-06T03:59:58.534Z,12.53
2022-09-06T04:02:26.050Z,12.52
2022-09-06T04:04:55.665Z,12.57
2022-09-06T04:07:23.434Z,12.64
2022-09-06T04:09:51.691Z,12.66
2022-09-06T04:12:18.971Z,12.69
2022-09-06T04:14:47.236Z,12.73
2022-09-06T04:17:14.846Z,12.71
2022-09-06T04:19:42.134Z,12.71
2022-09-06T04:22:09.787Z,12.79
2022-09-06T04:24:37.081Z,12.91
2022-09-06T04:27:04.739Z,12.98
2022-09-06T04:29:33.339Z,13.81
2022-09-06T04:32:00.894Z,15.40
2022-09-06T04:34:31.132Z,16.58
2022-09-06T04:36:58.750Z,16.46
2022-09-06T04:39:29.814Z,16.00
2022-09-06T04:41:58.385Z,15.59
2022-09-06T04:44:26.002Z,15.37
2022-09-06T04:47:08.798Z,15.15
2022-09-06T04:49:37.017Z,15.28
2022-09-06T04:52:07.654Z,16.84
2022-09-06T04:54:35.673Z,17.65
2022-09-06T04:57:04.530Z,16.98
2022-09-06T04:59:33.007Z,16.63
2022-09-06T05:02:07.729Z,17.76
2022-09-06T05:04:37.676Z,19.06
2022-09-06T05:07:07.539Z,20.23
2022-09-06T05:09:39.472Z,20.99
2022-09-06T05:12:09.617Z,21.56
2022-09-06T05:14:37.144Z,22.26
2022-09-06T05:17:06.658Z,22.57
2022-09-06T05:19:34.059Z,22.94
2022-09-06T05:22:01.468Z,23.14
2022-09-06T05:24:29.106Z,23.27
2022-09-06T05:26:56.896Z,23.45
2022-09-06T05:29:27.590Z,23.56
2022-09-06T05:31:58.965Z,23.59
2022-09-06T05:34:26.985Z,23.48
2022-09-06T05:37:03.362Z,23.81
2022-09-06T05:39:31.751Z,23.78
2022-09-06T05:42:19.863Z,23.54
2022-09-06T05:44:47.895Z,22.93
2022-09-06T05:47:15.332Z,22.85
2022-09-06T05:49:42.676Z,23.09
2022-09-06T05:52:10.504Z,23.36
2022-09-06T05:54:37.775Z,23.52
2022-09-06T05:57:07.675Z,23.44
2022-09-06T05:59:35.005Z,23.87
2022-09-06T06:02:07.058Z,24.14
2022-09-06T06:04:36.165Z,23.77
2022-09-06T06:07:03.643Z,23.32
2022-09-06T06:09:33.662Z,23.25
2022-09-06T06:12:03.712Z,23.12
2022-09-06T06:14:31.279Z,23.09
2022-09-06T06:16:58.958Z,22.86
2022-09-06T06:19:29.918Z,22.07
2022-09-06T06:22:06.622Z,20.50
2022-09-06T06:24:36.718Z,19.55
2022-09-06T06:27:04.380Z,18.44
2022-09-06T06:29:33.494Z,17.73
2022-09-06T06:32:01.296Z,17.19
2022-09-06T06:34:28.991Z,16.60
2022-09-06T06:36:59.270Z,16.23
2022-09-06T06:39:27.055Z,15.92
2022-09-06T06:41:54.618Z,15.83
2022-09-06T06:44:23.568Z,15.66
2022-09-06T06:46:52.252Z,15.61
2022-09-06T06:49:19.812Z,15.63
2022-09-06T06:51:47.238Z,15.64
2022-09-06T06:54:14.825Z,15.47
2022-09-06T06:56:47.815Z,15.38
2022-09-06T06:59:15.363Z,15.35
2022-09-06T07:01:45.966Z,15.44
2022-09-06T07:04:14.381Z,15.51
2022-09-06T07:12:31.980Z,15.60
2022-09-06T07:14:59.911Z,15.60
2022-09-06T07:17:33.266Z,15.56
2022-09-06T07:20:16.774Z,15.45
2022-09-06T07:22:47.478Z,15.46
2022-09-06T07:25:21.205Z,15.44
2022-09-06T07:28:07.390Z,15.48
2022-09-06T07:30:50.296Z,15.47
2022-09-06T07:33:20.558Z,15.56
2022-09-06T07:36:06.917Z,15.71
2022-09-06T07:38:40.878Z,15.87
2022-09-06T07:41:10.177Z,16.03
2022-09-06T07:43:38.474Z,16.18
2022-09-06T07:46:30.959Z,16.20
2022-09-06T07:48:58.467Z,16.30
2022-09-06T07:51:29.561Z,16.41
2022-09-06T07:54:26.393Z,16.58
2022-09-06T07:56:54.606Z,16.79
2022-09-06T07:59:22.432Z,17.04
2022-09-06T08:01:50.534Z,16.86
2022-09-06T08:04:19.440Z,16.96
2022-09-06T08:09:40.687Z,16.97
2022-09-06T08:12:08.617Z,17.19
2022-09-06T08:14:36.338Z,17.40
2022-09-06T08:17:12.746Z,17.41
2022-09-06T08:19:41.865Z,17.42
2022-09-06T08:22:12.185Z,17.68
2022-09-06T08:24:40.545Z,17.94
2022-09-06T08:27:08.198Z,17.99
2022-09-06T08:29:40.070Z,17.92
2022-09-06T08:32:11.940Z,18.00
2022-09-06T08:34:39.411Z,18.02
2022-09-06T08:37:07.548Z,18.07
2022-09-06T08:39:35.256Z,18.07
2022-09-06T08:42:06.918Z,18.07
2022-09-06T08:44:56.455Z,18.04
2022-09-06T08:47:25.462Z,17.69
2022-09-06T08:50:09.510Z,17.46
2022-09-06T08:53:18.586Z,17.20
2022-09-06T08:55:56.932Z,17.08
2022-09-06T08:58:30.243Z,17.33
2022-09-06T09:01:16.199Z,17.82
2022-09-06T09:03:46.913Z,17.99
2022-09-06T09:06:20.240Z,18.01
2022-09-06T09:09:07.941Z,17.72
2022-09-06T09:11:39.480Z,17.36
2022-09-06T09:14:23.293Z,17.43
2022-09-06T09:16:52.068Z,17.52
2022-09-06T09:19:19.733Z,17.62
2022-09-06T09:21:50.109Z,17.69
2022-09-06T09:24:17.830Z,17.63
2022-09-06T09:27:11.562Z,17.55
2022-09-06T09:32:47.996Z,17.03
2022-09-06T09:35:31.151Z,17.01
2022-09-06T09:38:20.895Z,17.12
2022-09-06T09:41:03.900Z,17.24
2022-09-06T09:43:35.374Z,17.42
2022-09-06T09:46:23.617Z,17.65
2022-09-06T09:49:02.797Z,17.86
2022-09-06T09:51:32.435Z,18.08
2022-09-06T09:54:03.950Z,18.07
2022-09-06T09:56:44.343Z,18.14
2022-09-06T09:59:20.876Z,18.23
2022-09-06T10:01:48.742Z,18.25
2022-09-06T10:07:21.068Z,17.96
2022-09-06T10:10:08.712Z,17.74
2022-09-06T10:12:41.461Z,17.64
2022-09-06T10:15:12.360Z,17.61
2022-09-06T10:17:51.603Z,17.70
2022-09-06T10:20:19.350Z,17.80
2022-09-06T10:22:56.653Z,18.02
2022-09-06T10:25:39.940Z,18.24
2022-09-06T10:28:26.367Z,18.32
2022-09-06T10:31:16.342Z,18.25
2022-09-06T10:34:17.584Z,18.14
2022-09-06T10:36:59.298Z,18.16
2022-09-06T10:39:47.618Z,18.56
2022-09-06T10:42:47.759Z,18.77
2022-09-06T10:45:37.726Z,18.90
2022-09-06T10:48:21.205Z,18.81
2022-09-06T10:50:50.989Z,18.65
2022-09-06T10:53:42.548Z,18.48
2022-09-06T10:56:13.699Z,18.42
2022-09-06T11:02:18.245Z,18.30
2022-09-06T11:10:40.320Z,18.41
2022-09-06T11:13:17.325Z,18.13
2022-09-06T11:16:15.016Z,17.98
2022-09-06T11:19:06.281Z,17.83
2022-09-06T11:21:47.742Z,17.67
2022-09-06T11:24:37.178Z,17.58
2022-09-06T11:27:22.995Z,17.39
2022-09-06T11:29:56.510Z,17.32
2022-09-06T11:32:38.531Z,17.43
2022-09-06T11:35:11.337Z,17.55
2022-09-06T11:37:43.106Z,17.66
2022-09-06T11:42:52.295Z,17.86
2022-09-06T11:45:44.582Z,17.86
2022-09-06T11:48:24.125Z,17.91
2022-09-06T11:50:54.739Z,18.04
2022-09-06T11:53:28.258Z,18.08
2022-09-06T11:56:02.139Z,18.10
2022-09-06T11:59:03.546Z,18.08
2022-09-06T12:01:30.912Z,18.01
2022-09-06T12:04:07.048Z,17.93
2022-09-06T12:07:00.120Z,18.05
2022-09-06T12:09:34.613Z,18.19
2022-09-06T12:12:05.330Z,18.17
2022-09-06T12:14:46.144Z,18.15
2022-09-06T12:17:13.600Z,18.16
2022-09-06T12:20:02.696Z,18.22
2022-09-06T12:22:31.134Z,18.26
2022-09-06T12:25:08.030Z,18.41
2022-09-06T12:27:44.376Z,18.54
2022-09-06T12:30:16.630Z,18.51
2022-09-06T12:32:47.552Z,18.34
2022-09-06T12:38:14.221Z,17.98
2022-09-06T12:40:48.873Z,17.96
2022-09-06T12:43:19.960Z,17.86
2022-09-06T12:45:50.794Z,17.76
2022-09-06T12:48:33.621Z,17.64
2022-09-06T12:51:06.515Z,17.55
2022-09-06T12:53:37.042Z,17.63
2022-09-06T12:56:15.255Z,17.64
2022-09-06T12:58:42.734Z,17.54
2022-09-06T13:01:24.173Z,17.44
2022-09-06T13:04:05.785Z,17.45
2022-09-06T13:06:37.675Z,17.44
2022-09-06T13:09:05.939Z,17.43
2022-09-06T13:11:38.752Z,17.42
2022-09-06T13:14:35.658Z,17.41
2022-09-06T13:17:09.378Z,17.46
2022-09-06T13:19:44.290Z,17.40
2022-09-06T13:22:38.748Z,17.35
2022-09-06T13:25:20.890Z,17.29
2022-09-06T13:27:51.315Z,17.26
2022-09-06T13:30:49.612Z,17.24
2022-09-06T13:33:35.337Z,17.32
2022-09-06T13:36:27.945Z,17.41
2022-09-06T13:38:55.736Z,17.50
2022-09-06T13:41:26.461Z,17.45
2022-09-06T13:44:05.390Z,17.44
2022-09-06T13:46:38.530Z,17.50
2022-09-06T13:49:06.242Z,17.55
2022-09-06T13:51:34.206Z,17.59
2022-09-06T13:54:16.146Z,17.64
2022-09-06T13:56:45.073Z,17.62
2022-09-06T13:59:13.032Z,17.58
2022-09-06T14:01:44.661Z,17.50
2022-09-06T14:04:15.731Z,17.43
2022-09-06T14:06:45.028Z,17.36
2022-09-06T14:09:12.709Z,17.17
2022-09-06T14:11:42.879Z,16.98
2022-09-06T14:14:14.096Z,16.92
2022-09-06T14:16:42.618Z,16.95
2022-09-06T14:19:11.382Z,17.01
2022-09-06T14:21:39.460Z,17.00
2022-09-06T14:24:11.227Z,17.02
2022-09-06T14:26:42.476Z,16.98
2022-09-06T14:29:10.238Z,16.93
2022-09-06T14:31:39.763Z,16.89
2022-09-06T14:34:13.219Z,16.89
2022-09-06T14:36:44.476Z,16.90
2022-09-06T14:39:12.113Z,16.82
2022-09-06T14:41:39.711Z,16.71
2022-09-06T14:44:07.569Z,16.70
2022-09-06T14:46:38.356Z,16.52
2022-09-06T14:49:10.105Z,16.40
2022-09-06T14:51:41.127Z,16.21
2022-09-06T14:54:10.972Z,16.06
2022-09-06T14:56:40.644Z,15.98
2022-09-06T14:59:09.294Z,15.93
2022-09-06T15:01:41.249Z,15.91
2022-09-06T15:04:11.150Z,15.85
2022-09-06T15:06:44.213Z,15.79
2022-09-06T15:09:12.313Z,15.69
2022-09-06T15:11:46.342Z,15.64
2022-09-06T15:14:20.433Z,15.61
2022-09-06T15:16:54.797Z,15.60
2022-09-06T15:19:25.943Z,15.59
2022-09-06T15:21:54.163Z,15.53
2022-09-06T15:24:21.800Z,15.53
2022-09-06T15:26:49.924Z,15.51
2022-09-06T15:29:17.521Z,15.51
2022-09-06T15:31:50.301Z,15.44
2022-09-06T15:34:22.479Z,15.42
2022-09-06T15:36:51.245Z,15.43
2022-09-06T15:39:18.994Z,15.41
2022-09-06T15:41:50.229Z,15.31
2022-09-06T15:44:19.769Z,15.26
2022-09-06T15:46:50.192Z,15.23
2022-09-06T15:49:29.051Z,15.19
2022-09-06T15:51:58.298Z,15.12
2022-09-06T15:54:45.494Z,15.06
2022-09-06T15:57:17.460Z,14.98
2022-09-06T15:59:45.599Z,14.89
2022-09-06T16:02:13.885Z,14.84
2022-09-06T16:04:41.454Z,14.75
2022-09-06T16:07:10.083Z,14.72
2022-09-06T16:09:37.807Z,14.68
2022-09-06T16:12:05.907Z,14.61
2022-09-06T16:14:35.778Z,14.59
2022-09-06T16:17:03.503Z,14.58
2022-09-06T16:19:30.904Z,14.53
2022-09-06T16:21:59.073Z,14.52
2022-09-06T16:24:26.674Z,14.49
2022-09-06T16:26:54.149Z,14.49
2022-09-06T16:29:24.919Z,14.45
2022-09-06T16:31:59.659Z,14.42
2022-09-06T16:34:27.533Z,14.41
2022-09-06T16:36:57.052Z,14.37
2022-09-06T16:39:24.754Z,14.36
2022-09-06T16:41:54.357Z,14.34
2022-09-06T16:44:21.769Z,14.33
2022-09-06T16:46:50.605Z,14.31
2022-09-06T16:49:19.609Z,14.27
2022-09-06T16:51:48.868Z,14.24
2022-09-06T16:54:16.925Z,14.32
2022-09-06T16:56:44.961Z,14.33
2022-09-06T16:59:13.153Z,14.34
2022-09-06T17:01:44.695Z,14.33
2022-09-06T17:04:13.268Z,14.31
2022-09-06T17:06:45.058Z,14.30
2022-09-06T17:09:14.981Z,14.25
2022-09-06T17:11:42.937Z,14.25
2022-09-06T17:14:11.556Z,14.22
2022-09-06T17:16:57.700Z,14.20
2022-09-06T17:19:32.011Z,14.16
2022-09-06T17:22:02.837Z,14.16
2022-09-06T17:24:31.195Z,14.13
2022-09-06T17:26:58.938Z,14.09
2022-09-06T17:29:27.920Z,14.06
2022-09-06T17:31:56.249Z,14.01
2022-09-06T17:34:26.679Z,13.96
2022-09-06T17:36:54.397Z,13.88
2022-09-06T17:39:21.850Z,13.89
2022-09-06T17:41:52.337Z,13.89
2022-09-06T17:44:22.308Z,13.88
2022-09-06T17:47:12.021Z,13.84
2022-09-06T17:49:41.137Z,13.79
2022-09-06T17:52:12.199Z,13.77
2022-09-06T17:54:39.829Z,13.72
2022-09-06T17:57:25.675Z,13.63
2022-09-06T17:59:55.376Z,13.52
2022-09-06T18:02:25.891Z,13.48
2022-09-06T18:04:53.234Z,13.40
2022-09-06T18:07:23.243Z,13.31
2022-09-06T18:09:54.757Z,13.22
2022-09-06T18:12:24.439Z,13.15
2022-09-06T18:14:56.842Z,13.05
2022-09-06T18:17:40.125Z,12.94
2022-09-06T18:20:08.453Z,12.83
2022-09-06T18:22:40.309Z,12.79
2022-09-06T18:25:08.911Z,12.71
2022-09-06T18:27:49.160Z,12.64
2022-09-06T18:30:29.898Z,12.57
2022-09-06T18:33:29.486Z,12.51
2022-09-06T18:35:57.070Z,12.46
2022-09-06T18:38:24.552Z,12.40
2022-09-06T18:40:53.607Z,12.35
2022-09-06T18:43:22.258Z,12.28
2022-09-06T18:45:53.695Z,12.23
2022-09-06T18:48:21.198Z,12.17
2022-09-06T18:50:48.611Z,12.14
2022-09-06T18:53:18.268Z,12.11
2022-09-06T18:55:45.805Z,12.11
2022-09-06T18:58:14.299Z,12.08
2022-09-06T19:00:52.396Z,12.03
2022-09-06T19:03:21.544Z,11.98
2022-09-06T19:08:52.882Z,11.84
2022-09-06T19:11:21.672Z,11.80
2022-09-06T19:13:53.931Z,11.76
2022-09-06T19:16:22.705Z,11.74
2022-09-06T19:18:51.603Z,11.78
2022-09-06T19:21:20.226Z,11.82
2022-09-06T19:23:56.545Z,11.84
2022-09-06T19:26:25.190Z,11.88
2022-09-06T19:28:56.393Z,11.94
2022-09-06T19:31:25.549Z,12.02
2022-09-06T19:33:57.335Z,12.09
2022-09-06T19:36:25.869Z,12.18
2022-09-06T19:39:03.544Z,12.28
2022-09-06T19:41:36.911Z,12.34
2022-09-06T19:44:08.813Z,12.39
2022-09-06T19:46:37.315Z,12.43
2022-09-06T19:49:05.513Z,12.47
2022-09-06T19:51:35.802Z,12.47
2022-09-06T19:54:03.676Z,12.50
2022-09-06T19:56:34.380Z,12.54
2022-09-06T19:59:06.141Z,12.56
2022-09-06T20:01:39.654Z,12.58
2022-09-06T20:04:14.678Z,12.63
2022-09-06T20:06:46.102Z,12.66
2022-09-06T20:09:15.491Z,12.68
2022-09-06T20:11:44.326Z,12.69
2022-09-06T20:14:12.503Z,12.74
2022-09-06T20:16:42.463Z,12.77
2022-09-06T20:19:12.225Z,12.78
2022-09-06T20:21:40.303Z,12.75
2022-09-06T20:24:12.107Z,12.68
2022-09-06T20:26:47.091Z,12.60
2022-09-06T20:29:14.607Z,12.50
2022-09-06T20:31:42.253Z,12.42
2022-09-06T20:34:10.834Z,12.37
2022-09-06T20:36:39.108Z,12.28
2022-09-06T20:39:06.477Z,12.19
2022-09-06T20:41:37.623Z,12.15
2022-09-06T20:44:07.979Z,12.06
2022-09-06T20:46:36.192Z,12.03
2022-09-06T20:49:05.142Z,11.99
2022-09-06T20:51:35.656Z,11.96
2022-09-06T20:54:05.396Z,11.88
2022-09-06T20:56:39.259Z,11.83
2022-09-06T20:59:10.318Z,11.83
2022-09-06T21:01:40.849Z,11.80
2022-09-06T21:04:09.878Z,11.76
2022-09-06T21:06:38.656Z,11.70
2022-09-06T21:09:10.494Z,11.63
2022-09-06T21:11:39.786Z,11.59
2022-09-06T21:14:11.621Z,11.53
2022-09-06T21:16:40.793Z,11.55
2022-09-06T21:19:09.844Z,11.55
2022-09-06T21:21:38.759Z,11.50
2022-09-06T21:24:07.349Z,11.46
2022-09-06T21:26:35.971Z,11.41
2022-09-06T21:29:04.117Z,11.35
2022-09-06T21:31:33.874Z,11.28
2022-09-06T21:34:05.048Z,11.20
2022-09-06T21:36:37.431Z,11.09
2022-09-06T21:39:09.651Z,10.98
2022-09-06T21:41:38.725Z,10.93
2022-09-06T21:44:06.945Z,10.86
2022-09-06T21:46:36.268Z,10.76
2022-09-06T21:49:07.272Z,10.64
2022-09-06T21:51:35.093Z,10.55
2022-09-06T21:54:05.079Z,10.43
2022-09-06T21:56:35.754Z,10.40
2022-09-06T21:59:04.776Z,10.35
2022-09-06T22:01:36.862Z,10.27
2022-09-06T22:04:05.169Z,10.18
2022-09-06T22:06:34.534Z,10.10
2022-09-06T22:09:04.898Z,10.04
2022-09-06T22:11:35.613Z,9.94
2022-09-06T22:14:06.580Z,9.87
2022-09-06T22:16:38.876Z,9.76
2022-09-06T22:19:07.340Z,9.68
2022-09-06T22:21:35.092Z,9.63
2022-09-06T22:24:06.610Z,9.59
2022-09-06T22:26:35.474Z,9.53
2022-09-06T22:29:05.784Z,9.41
2022-09-06T22:31:34.317Z,9.38
2022-09-06T22:34:02.785Z,9.32
2022-09-06T22:36:32.465Z,9.28
2022-09-06T22:38:59.969Z,9.24
2022-09-06T22:41:29.789Z,9.20
2022-09-06T22:43:57.259Z,9.18
2022-09-06T22:46:24.629Z,9.14
2022-09-06T22:48:52.404Z,9.15
2022-09-06T22:51:19.711Z,9.15
2022-09-06T22:53:47.763Z,9.18
2022-09-06T22:56:15.034Z,9.19
2022-09-06T22:58:42.282Z,9.13
2022-09-06T23:01:13.954Z,9.11
2022-09-06T23:03:42.354Z,9.14
2022-09-06T23:06:10.250Z,9.12
2022-09-06T23:08:38.963Z,9.12
2022-09-06T23:11:08.763Z,9.17
2022-09-06T23:13:36.270Z,9.17
2022-09-06T23:16:05.930Z,9.09
2022-09-06T23:18:33.941Z,9.04
2022-09-06T23:21:08.998Z,9.05
2022-09-06T23:23:38.328Z,9.02
2022-09-06T23:26:08.267Z,8.99
2022-09-06T23:28:36.910Z,8.95
2022-09-06T23:31:08.713Z,8.96
2022-09-06T23:33:37.428Z,8.91
2022-09-06T23:36:08.824Z,8.88
2022-09-06T23:38:37.537Z,8.79
2022-09-06T23:41:06.020Z,8.75
2022-09-06T23:43:34.141Z,8.73
2022-09-06T23:46:01.524Z,8.70
2022-09-06T23:48:29.172Z,8.65
2022-09-06T23:50:56.732Z,8.66
2022-09-06T23:53:24.612Z,8.62
2022-09-06T23:55:52.235Z,8.63
2022-09-06T23:58:19.745Z,8.60
